Time;durP1;ratioP1;P1;durP2;ratioP2;P2;SDS_P1;SDS_P2;PMS_P1;PMS_P2;Temp;Humidity;BMP_temperature;BMP_pressure;BME280_temperature;BME280_humidity;BME280_pressure;Samples;Min_cycle;Max_cycle;Signal;HPM_P1;HPM_P2
2021/10/23 00:03:10;;;;;;;2.90;1.58;;;17.70;72.20;;;;;;10373660;28;20112;-55
2021/10/23 00:08:11;;;;;;;2.63;1.02;;;17.70;72.10;;;;;;10335207;28;20025;-53
2021/10/23 00:13:12;;;;;;;2.58;1.30;;;17.70;71.80;;;;;;10335651;28;20038;-54
2021/10/23 00:18:12;;;;;;;3.65;1.52;;;17.80;71.80;;;;;;10347453;28;20030;-55
2021/10/23 00:23:13;;;;;;;3.33;1.02;;;17.80;71.60;;;;;;10346775;28;20460;-55
2021/10/23 00:28:14;;;;;;;3.03;1.30;;;17.80;71.50;;;;;;10336506;28;20034;-54
2021/10/23 00:33:15;;;;;;;1.73;1.00;;;17.80;71.60;;;;;;10341949;28;20065;-53
2021/10/23 00:38:16;;;;;;;2.83;1.17;;;17.70;71.60;;;;;;10362090;28;20042;-55
2021/10/23 00:43:16;;;;;;;3.10;1.50;;;17.80;71.50;;;;;;10372528;28;20037;-56
2021/10/23 00:48:17;;;;;;;1.80;1.00;;;17.80;71.50;;;;;;10372338;28;20050;-55
2021/10/23 00:53:21;;;;;;;3.58;1.38;;;17.70;71.40;;;;;;10371615;28;20037;-56
2021/10/23 00:58:22;;;;;;;1.80;1.00;;;17.70;71.60;;;;;;10371957;28;20026;-52
2021/10/23 01:03:24;;;;;;;3.60;1.35;;;17.70;71.50;;;;;;10372075;28;20049;-54
2021/10/23 01:08:26;;;;;;;2.22;1.40;;;17.80;71.40;;;;;;10344970;28;20036;-55
2021/10/23 01:13:27;;;;;;;2.40;1.08;;;17.70;71.40;;;;;;10340089;28;20030;-53
2021/10/23 01:18:27;;;;;;;3.47;1.30;;;17.70;71.50;;;;;;10346760;28;20081;-54
2021/10/23 01:23:28;;;;;;;2.47;1.10;;;17.70;71.50;;;;;;10371566;28;20061;-52
2021/10/23 01:28:29;;;;;;;2.92;1.30;;;17.80;71.40;;;;;;10340281;28;20117;-55
2021/10/23 01:33:29;;;;;;;2.53;1.00;;;17.70;71.20;;;;;;10339173;28;20066;-54
2021/10/23 01:38:30;;;;;;;2.25;1.17;;;17.70;71.20;;;;;;10355901;28;20124;-52
2021/10/23 01:43:31;;;;;;;2.03;1.33;;;17.70;71.10;;;;;;10341052;28;20121;-52
2021/10/23 01:48:37;;;;;;;2.50;1.23;;;17.70;71.00;;;;;;10333657;28;20054;-54
2021/10/23 01:53:38;;;;;;;3.67;1.48;;;17.80;71.00;;;;;;10352925;28;20088;-53
2021/10/23 01:58:39;;;;;;;2.25;1.30;;;17.70;70.90;;;;;;10371197;28;20026;-51
2021/10/23 02:03:40;;;;;;;2.20;0.93;;;17.80;71.00;;;;;;10356061;28;20446;-54
2021/10/23 02:08:40;;;;;;;2.45;1.30;;;17.80;71.00;;;;;;10337346;28;20038;-54
2021/10/23 02:13:41;;;;;;;3.42;1.27;;;17.80;70.80;;;;;;10351382;28;20073;-53
2021/10/23 02:18:42;;;;;;;3.20;1.00;;;17.80;70.60;;;;;;10359849;28;20363;-53
2021/10/23 02:23:43;;;;;;;2.42;1.10;;;17.80;70.80;;;;;;10345017;28;20478;-55
2021/10/23 02:28:43;;;;;;;2.63;0.90;;;17.80;70.60;;;;;;10355895;28;20035;-54
2021/10/23 02:33:44;;;;;;;1.60;1.10;;;17.80;70.50;;;;;;10345447;28;20022;-54
2021/10/23 02:38:45;;;;;;;2.83;1.15;;;17.80;70.60;;;;;;10376704;28;20120;-54
2021/10/23 02:43:45;;;;;;;2.42;1.13;;;17.80;70.60;;;;;;10376937;28;20508;-53
2021/10/23 02:48:46;;;;;;;2.10;1.25;;;17.80;70.30;;;;;;10376422;28;20034;-54
2021/10/23 02:53:47;;;;;;;2.85;1.27;;;17.80;70.40;;;;;;10375981;28;20044;-56
2021/10/23 02:58:48;;;;;;;3.15;1.35;;;17.80;70.50;;;;;;10337548;28;20049;-53
2021/10/23 03:03:50;;;;;;;1.88;0.93;;;17.80;70.40;;;;;;10376327;28;20095;-54
2021/10/23 03:08:51;;;;;;;2.20;1.23;;;17.80;70.20;;;;;;10375825;28;20366;-54
2021/10/23 03:13:52;;;;;;;3.42;1.13;;;17.90;70.10;;;;;;10375624;28;20042;-53
2021/10/23 03:18:52;;;;;;;2.30;0.90;;;17.90;69.90;;;;;;10357006;28;20026;-53
2021/10/23 03:23:53;;;;;;;2.40;1.17;;;17.80;70.00;;;;;;10341733;28;20034;-51
2021/10/23 03:28:55;;;;;;;1.75;1.00;;;17.70;70.20;;;;;;10355318;28;20574;-55
2021/10/23 03:33:55;;;;;;;2.30;1.23;;;17.80;70.00;;;;;;10338094;28;20037;-52
2021/10/23 03:38:56;;;;;;;2.22;0.98;;;17.80;69.90;;;;;;10337578;28;20133;-55
2021/10/23 03:43:57;;;;;;;2.25;1.20;;;17.90;69.70;;;;;;10353823;28;20053;-54
2021/10/23 03:48:58;;;;;;;1.77;0.85;;;17.90;69.50;;;;;;10373072;28;20493;-53
2021/10/23 03:53:59;;;;;;;3.67;1.17;;;17.90;69.60;;;;;;10333759;28;20340;-54
2021/10/23 03:59:00;;;;;;;2.30;1.20;;;17.80;69.70;;;;;;10334356;28;20113;-55
2021/10/23 04:04:00;;;;;;;2.63;1.30;;;17.80;69.50;;;;;;10364017;28;20135;-55
2021/10/23 04:09:01;;;;;;;1.90;0.95;;;17.80;69.40;;;;;;10373500;28;20053;-55
2021/10/23 04:14:03;;;;;;;2.35;1.20;;;17.80;69.60;;;;;;10352952;28;20030;-55
2021/10/23 04:19:04;;;;;;;2.80;1.42;;;17.80;69.70;;;;;;10338720;28;20470;-55
2021/10/23 04:24:05;;;;;;;2.38;1.10;;;17.80;69.50;;;;;;10354532;28;20034;-55
2021/10/23 04:29:07;;;;;;;1.88;0.75;;;17.80;69.50;;;;;;10357827;28;20095;-53
2021/10/23 04:34:07;;;;;;;3.28;1.10;;;17.80;69.40;;;;;;10360125;28;20393;-54
2021/10/23 04:39:08;;;;;;;1.95;0.70;;;17.80;69.30;;;;;;10341174;28;20041;-52
2021/10/23 04:44:09;;;;;;;1.92;0.90;;;18.00;68.90;;;;;;10344793;28;20030;-55
2021/10/23 04:49:10;;;;;;;1.80;0.88;;;18.10;68.50;;;;;;10355700;28;20034;-55
2021/10/23 04:54:11;;;;;;;3.03;0.85;;;18.20;68.30;;;;;;10358552;28;20039;-54
2021/10/23 04:59:12;;;;;;;4.32;0.98;;;18.20;68.10;;;;;;10367324;28;20088;-54
2021/10/23 05:04:13;;;;;;;1.70;0.80;;;18.20;68.10;;;;;;10368856;28;20124;-56
2021/10/23 05:09:13;;;;;;;3.35;0.80;;;18.30;68.20;;;;;;10364301;28;20129;-56
2021/10/23 05:14:14;;;;;;;2.28;1.27;;;18.30;67.90;;;;;;10371922;28;20472;-54
2021/10/23 05:19:15;;;;;;;3.17;1.15;;;18.30;68.20;;;;;;10370509;28;20041;-54
2021/10/23 05:24:15;;;;;;;4.60;1.50;;;18.30;67.60;;;;;;10367652;28;20030;-54
2021/10/23 05:29:16;;;;;;;4.85;1.30;;;18.20;67.40;;;;;;10371631;28;20057;-54
2021/10/23 05:34:17;;;;;;;5.55;1.45;;;18.40;68.00;;;;;;10354367;28;20704;-49
2021/10/23 05:39:18;;;;;;;3.42;1.10;;;18.30;68.30;;;;;;10370534;28;20851;-56
2021/10/23 05:44:19;;;;;;;6.50;1.88;;;18.60;68.20;;;;;;10364125;28;20561;-55
2021/10/23 05:49:20;;;;;;;3.95;1.23;;;18.70;67.50;;;;;;10370225;28;20036;-52
2021/10/23 05:54:21;;;;;;;4.78;1.15;;;18.80;67.00;;;;;;10392124;28;20041;-48
2021/10/23 05:59:23;;;;;;;7.28;1.00;;;18.90;66.90;;;;;;10396592;28;20018;-51
2021/10/23 06:04:24;;;;;;;7.75;1.42;;;18.80;67.30;;;;;;10381152;28;20088;-48
2021/10/23 06:09:25;;;;;;;5.03;1.05;;;18.90;66.70;;;;;;10365225;28;20041;-50
2021/10/23 06:14:26;;;;;;;6.82;1.10;;;18.90;66.70;;;;;;10375019;28;20108;-51
2021/10/23 06:19:26;;;;;;;8.98;1.45;;;18.90;66.40;;;;;;10377352;28;20425;-52
2021/10/23 06:24:28;;;;;;;5.32;1.48;;;19.00;66.40;;;;;;10355252;28;20069;-48
2021/10/23 06:29:29;;;;;;;5.38;1.65;;;19.00;66.50;;;;;;10361521;28;20298;-49
2021/10/23 06:34:30;;;;;;;6.30;1.50;;;19.00;66.70;;;;;;10375646;28;20039;-51
2021/10/23 06:39:31;;;;;;;5.90;1.70;;;18.90;66.70;;;;;;10383738;28;20128;-47
2021/10/23 06:44:32;;;;;;;5.20;1.42;;;18.80;66.70;;;;;;10385103;28;20034;-51
2021/10/23 06:49:32;;;;;;;3.90;1.45;;;18.70;66.60;;;;;;10370926;28;20049;-51
2021/10/23 06:54:33;;;;;;;6.93;1.60;;;18.70;66.70;;;;;;10387864;28;20069;-51
2021/10/23 06:59:34;;;;;;;6.60;1.70;;;18.70;66.30;;;;;;10363473;28;20069;-53
2021/10/23 07:04:34;;;;;;;10.57;1.88;;;18.70;66.50;;;;;;10363406;28;20076;-53
2021/10/23 07:09:35;;;;;;;8.68;1.90;;;18.60;66.30;;;;;;10362007;28;20409;-51
2021/10/23 07:14:36;;;;;;;4.53;1.50;;;18.70;66.10;;;;;;10367247;28;20042;-50
2021/10/23 07:19:37;;;;;;;6.82;1.73;;;18.70;66.10;;;;;;10378402;28;20034;-51
2021/10/23 07:24:37;;;;;;;3.75;1.38;;;18.80;66.00;;;;;;10360283;28;20105;-50
2021/10/23 07:29:38;;;;;;;5.03;1.20;;;18.70;66.10;;;;;;10370612;28;20041;-48
2021/10/23 07:34:38;;;;;;;4.03;1.10;;;18.60;66.40;;;;;;10376097;28;20086;-52
2021/10/23 07:39:39;;;;;;;3.15;1.27;;;18.60;66.40;;;;;;10381205;28;20426;-50
2021/10/23 07:44:40;;;;;;;4.35;0.90;;;18.70;66.30;;;;;;10354191;28;20042;-47
2021/10/23 07:49:41;;;;;;;5.47;1.60;;;18.80;66.20;;;;;;10377837;28;20117;-47
2021/10/23 07:54:42;;;;;;;2.85;1.52;;;18.70;66.20;;;;;;10374472;28;20115;-51
2021/10/23 07:59:46;;;;;;;3.13;1.10;;;18.70;66.50;;;;;;10372885;28;20022;-50
2021/10/23 08:04:46;;;;;;;3.05;1.42;;;18.70;66.30;;;;;;10364602;28;20508;-53
2021/10/23 08:09:47;;;;;;;4.63;1.17;;;18.70;66.90;;;;;;10374923;28;20105;-50
2021/10/23 08:14:48;;;;;;;2.08;1.15;;;18.60;66.70;;;;;;10371465;28;20025;-51
2021/10/23 08:19:50;;;;;;;2.13;1.33;;;18.60;66.60;;;;;;10372273;28;20117;-52
2021/10/23 08:24:53;;;;;;;3.65;1.20;;;18.70;66.70;;;;;;10372183;28;20108;-50
2021/10/23 08:29:54;;;;;;;4.28;1.52;;;18.80;66.50;;;;;;10364925;28;20347;-52
2021/10/23 08:34:55;;;;;;;3.40;1.25;;;18.70;66.40;;;;;;10370922;28;20026;-50
2021/10/23 08:39:56;;;;;;;3.63;1.30;;;18.60;66.70;;;;;;10366761;28;20494;-50
2021/10/23 08:45:05;;;;;;;3.42;1.77;;;18.70;66.80;;;;;;10371911;28;20128;-51
2021/10/23 08:50:11;;;;;;;8.55;2.25;;;18.60;66.40;;;;;;10368145;28;20030;-47
2021/10/23 08:55:12;;;;;;;10.43;1.90;;;18.50;66.80;;;;;;10354849;28;20046;-51
2021/10/23 09:00:13;;;;;;;13.75;2.47;;;18.70;67.20;;;;;;10364612;28;20025;-53
2021/10/23 09:05:15;;;;;;;7.70;2.00;;;18.70;68.00;;;;;;10356352;28;20026;-53
2021/10/23 09:10:30;;;;;;;11.98;2.35;;;18.80;67.70;;;;;;10362387;28;20080;-53
2021/10/23 09:15:40;;;;;;;9.55;2.60;;;18.70;67.90;;;;;;10365441;28;20618;-53
2021/10/23 09:20:43;;;;;;;11.20;2.33;;;18.60;68.40;;;;;;10369417;28;20122;-56
2021/10/23 09:25:46;;;;;;;9.85;2.47;;;18.50;68.80;;;;;;10355075;28;20502;-54
2021/10/23 09:30:50;;;;;;;7.22;2.00;;;18.40;69.00;;;;;;10364727;28;20145;-53
2021/10/23 09:35:57;;;;;;;10.50;2.38;;;18.40;68.80;;;;;;10371526;28;20148;-52
2021/10/23 09:41:14;;;;;;;5.10;1.88;;;18.40;68.90;;;;;;10378065;28;20489;-53
2021/10/23 09:46:20;;;;;;;8.02;2.10;;;18.40;69.10;;;;;;10378783;28;20157;-53
2021/10/23 09:51:28;;;;;;;5.13;1.90;;;18.50;69.40;;;;;;10377736;28;20038;-51
2021/10/23 09:56:48;;;;;;;9.88;3.40;;;18.60;69.30;;;;;;10377935;28;20101;-50
2021/10/23 10:01:50;;;;;;;13.32;3.22;;;18.80;69.00;;;;;;10363421;28;20032;-53
2021/10/23 10:06:51;;;;;;;11.48;4.18;;;19.00;69.30;;;;;;10349807;28;20045;-52
2021/10/23 10:11:55;;;;;;;18.13;4.38;;;18.90;69.90;;;;;;10299091;28;20029;-48
2021/10/23 10:17:00;;;;;;;9.25;4.28;;;18.80;70.50;;;;;;10368915;28;20109;-49
2021/10/23 10:22:08;;;;;;;19.40;5.50;;;18.80;71.10;;;;;;10358215;28;20037;-56
2021/10/23 10:27:15;;;;;;;25.35;6.45;;;18.90;70.90;;;;;;10364902;28;20046;-51
2021/10/23 10:32:39;;;;;;;21.40;6.63;;;19.00;71.00;;;;;;10344932;28;20038;-54
2021/10/23 10:43:13;;;;;;;25.50;5.50;;;18.90;71.30;;;;;;10373115;28;20057;-48
2021/10/23 10:48:25;;;;;;;17.08;5.85;;;18.90;71.10;;;;;;10374845;28;20026;-48
2021/10/23 10:53:36;;;;;;;25.08;6.07;;;18.90;72.00;;;;;;10375596;28;20378;-49
2021/10/23 10:58:57;;;;;;;16.65;5.07;;;18.70;72.90;;;;;;10361643;28;20037;-48
2021/10/23 11:04:10;;;;;;;20.63;5.32;;;18.60;73.70;;;;;;10364477;28;20073;-48
2021/10/23 11:09:14;;;;;;;16.33;4.78;;;18.70;74.10;;;;;;10326427;28;20466;-49
2021/10/23 11:14:21;;;;;;;18.42;6.10;;;18.70;74.60;;;;;;10371183;28;20368;-50
2021/10/23 11:19:34;;;;;;;15.23;5.53;;;18.60;74.50;;;;;;10362673;28;20040;-50
2021/10/23 11:25:02;;;;;;;16.15;5.10;;;18.60;74.40;;;;;;10381877;28;20029;-48
2021/10/23 11:30:15;;;;;;;17.00;4.95;;;18.60;74.20;;;;;;10342758;28;20034;-55
2021/10/23 11:35:15;;;;;;;16.55;4.50;;;18.50;74.10;;;;;;10333699;28;20038;-50
2021/10/23 11:40:16;;;;;;;16.00;3.90;;;18.50;74.60;;;;;;10336079;28;20054;-49
2021/10/23 11:45:21;;;;;;;16.77;4.65;;;18.60;74.80;;;;;;10347281;28;20485;-47
2021/10/23 11:50:24;;;;;;;16.00;4.28;;;18.60;74.80;;;;;;10373490;28;20117;-48
2021/10/23 11:55:41;;;;;;;17.02;4.03;;;18.60;74.70;;;;;;10368612;28;20060;-51
2021/10/23 12:00:49;;;;;;;12.88;4.50;;;18.60;74.60;;;;;;10373176;28;20707;-56
2021/10/23 12:05:50;;;;;;;16.70;3.60;;;18.50;73.60;;;;;;10352776;28;20058;-50
2021/10/23 12:11:18;;;;;;;10.68;4.13;;;18.50;73.10;;;;;;10346792;28;20121;-48
2021/10/23 12:16:49;;;;;;;11.88;4.63;;;18.40;73.20;;;;;;10352722;28;20054;-47
2021/10/23 12:22:05;;;;;;;16.67;4.30;;;18.30;73.80;;;;;;10376154;28;20029;-54
2021/10/23 12:27:29;;;;;;;23.65;5.80;;;18.20;73.80;;;;;;10354170;28;20026;-49
2021/10/23 12:32:43;;;;;;;14.63;4.05;;;18.10;73.40;;;;;;10356987;28;20125;-49
2021/10/23 12:37:56;;;;;;;17.10;5.05;;;18.00;73.40;;;;;;10368539;28;20017;-50
2021/10/23 12:43:03;;;;;;;15.57;4.35;;;17.90;73.70;;;;;;10335972;28;20116;-50
2021/10/23 12:48:11;;;;;;;14.02;5.10;;;17.90;73.70;;;;;;10335866;28;20038;-50
2021/10/23 12:53:12;;;;;;;16.67;4.00;;;17.90;73.80;;;;;;10316556;28;20726;-51
2021/10/23 12:58:13;;;;;;;9.43;3.67;;;17.90;73.80;;;;;;10358133;28;20057;-49
2021/10/23 13:03:16;;;;;;;13.23;4.15;;;17.90;73.70;;;;;;10354318;28;20397;-50
2021/10/23 13:08:16;;;;;;;8.68;3.22;;;18.00;73.20;;;;;;10360130;28;20033;-49
2021/10/23 13:13:17;;;;;;;12.43;4.20;;;18.00;73.10;;;;;;10356771;28;20077;-49
2021/10/23 13:18:18;;;;;;;9.10;3.90;;;18.10;72.80;;;;;;10347063;28;20113;-49
2021/10/23 13:23:19;;;;;;;9.63;3.65;;;18.20;72.30;;;;;;10337835;28;20460;-52
2021/10/23 13:28:20;;;;;;;8.18;2.83;;;18.30;72.10;;;;;;10334082;28;20029;-53
2021/10/23 13:33:21;;;;;;;8.55;3.30;;;18.40;71.60;;;;;;10332355;28;20044;-49
2021/10/23 13:38:21;;;;;;;6.35;2.90;;;18.40;71.30;;;;;;10341753;28;20086;-50
2021/10/23 13:43:22;;;;;;;7.45;3.17;;;18.40;71.40;;;;;;10370975;28;20030;-50
2021/10/23 13:48:24;;;;;;;7.68;2.67;;;18.30;71.60;;;;;;10369198;28;20029;-49
2021/10/23 13:53:25;;;;;;;9.98;2.78;;;18.30;71.80;;;;;;10370605;28;20034;-52
2021/10/23 13:58:25;;;;;;;6.63;2.70;;;18.20;72.00;;;;;;10370184;28;20100;-49
2021/10/23 14:03:26;;;;;;;5.45;2.65;;;18.10;72.00;;;;;;10362421;28;20513;-50
2021/10/23 14:08:27;;;;;;;5.18;2.30;;;18.30;71.70;;;;;;10377086;28;20021;-50
2021/10/23 14:13:27;;;;;;;7.57;2.63;;;18.40;71.30;;;;;;10377689;28;20125;-49
2021/10/23 14:18:28;;;;;;;6.88;2.38;;;18.40;71.20;;;;;;10365863;28;20101;-53
2021/10/23 14:23:29;;;;;;;6.47;2.88;;;18.40;71.20;;;;;;10375911;28;20042;-53
2021/10/23 14:28:40;;;;;;;6.55;2.33;;;18.30;71.20;;;;;;10351713;28;20505;-53
2021/10/23 14:33:43;;;;;;;5.97;2.30;;;18.30;71.30;;;;;;10336423;28;20041;-53
2021/10/23 14:38:44;;;;;;;11.02;3.65;;;18.20;71.50;;;;;;10345899;28;20041;-53
2021/10/23 14:43:44;;;;;;;4.32;1.98;;;18.20;71.50;;;;;;10377939;28;20540;-54
2021/10/23 14:48:46;;;;;;;6.88;2.97;;;18.30;71.30;;;;;;10367572;28;20037;-54
2021/10/23 14:53:47;;;;;;;7.60;2.80;;;18.40;70.90;;;;;;10365334;28;20026;-50
2021/10/23 14:58:47;;;;;;;9.13;2.38;;;18.40;70.60;;;;;;10365847;28;20537;-54
2021/10/23 15:03:48;;;;;;;10.63;2.65;;;18.60;70.60;;;;;;10363998;28;20117;-50
2021/10/23 15:08:49;;;;;;;8.45;2.83;;;18.70;70.10;;;;;;10370380;28;20028;-53
2021/10/23 15:13:50;;;;;;;9.88;2.70;;;18.70;70.30;;;;;;10370954;28;20124;-52
2021/10/23 15:18:50;;;;;;;8.50;2.17;;;18.70;70.70;;;;;;10364901;28;20030;-53
2021/10/23 15:23:51;;;;;;;12.73;2.85;;;18.60;71.00;;;;;;10385295;28;20409;-53
2021/10/23 15:28:52;;;;;;;9.57;2.60;;;18.60;71.60;;;;;;10373095;28;20112;-50
2021/10/23 15:33:52;;;;;;;11.13;3.17;;;18.50;71.80;;;;;;10371255;28;20113;-54
2021/10/23 15:38:55;;;;;;;8.65;2.45;;;18.40;72.00;;;;;;10369883;28;20078;-52
2021/10/23 15:44:02;;;;;;;14.50;3.22;;;18.40;72.30;;;;;;10363807;28;20093;-54
2021/10/23 15:49:03;;;;;;;14.02;3.85;;;18.30;72.40;;;;;;10372402;28;20537;-54
2021/10/23 15:54:04;;;;;;;7.45;4.28;;;18.20;72.10;;;;;;10372080;28;20030;-54
2021/10/23 15:59:06;;;;;;;8.00;4.80;;;18.30;71.60;;;;;;10372174;28;20041;-50
2021/10/23 16:04:06;;;;;;;17.77;4.85;;;18.40;70.30;;;;;;10372814;28;20362;-53
2021/10/23 16:09:07;;;;;;;7.45;4.30;;;18.50;69.80;;;;;;10372061;28;20061;-50
2021/10/23 16:14:08;;;;;;;12.38;4.45;;;18.70;71.80;;;;;;10372001;28;20463;-48
2021/10/23 16:19:10;;;;;;;11.02;3.78;;;18.80;72.70;;;;;;10359718;28;20035;-51
2021/10/23 16:24:11;;;;;;;18.40;4.80;;;18.80;72.30;;;;;;10367752;28;20113;-52
2021/10/23 16:29:14;;;;;;;10.00;4.18;;;18.80;71.90;;;;;;10351873;28;20038;-52
2021/10/23 16:34:15;;;;;;;12.88;4.15;;;18.90;71.80;;;;;;10357633;28;20034;-52
2021/10/23 16:39:16;;;;;;;12.23;4.03;;;18.80;71.80;;;;;;10355981;28;20058;-51
2021/10/23 16:44:19;;;;;;;12.48;4.20;;;18.70;71.70;;;;;;10357479;28;20145;-51
2021/10/23 16:49:19;;;;;;;16.20;3.58;;;18.70;72.20;;;;;;10349709;28;20439;-53
2021/10/23 16:54:21;;;;;;;17.23;4.55;;;18.60;72.30;;;;;;10351616;28;20046;-53
2021/10/23 16:59:22;;;;;;;23.38;4.38;;;18.50;72.40;;;;;;10331698;28;20117;-53
2021/10/23 17:04:23;;;;;;;11.48;3.65;;;18.40;72.50;;;;;;10365498;28;20121;-52
2021/10/23 17:09:23;;;;;;;11.52;4.03;;;18.30;72.80;;;;;;10334657;28;20117;-52
2021/10/23 17:14:24;;;;;;;19.02;5.13;;;18.20;72.80;;;;;;10363957;28;20037;-51
2021/10/23 17:19:25;;;;;;;12.70;3.92;;;18.10;72.70;;;;;;10368658;28;20410;-53
2021/10/23 17:24:26;;;;;;;11.65;4.28;;;18.00;72.60;;;;;;10365970;28;20120;-53
2021/10/23 17:29:27;;;;;;;10.57;3.85;;;18.10;73.00;;;;;;10367530;28;20030;-53
2021/10/23 17:34:28;;;;;;;11.23;3.58;;;18.10;72.90;;;;;;10367221;28;20030;-53
2021/10/23 17:39:30;;;;;;;10.88;4.15;;;18.10;72.60;;;;;;10373514;28;20478;-55
2021/10/23 17:44:35;;;;;;;11.95;4.55;;;18.20;73.10;;;;;;10369398;28;20033;-54
2021/10/23 17:49:37;;;;;;;14.77;5.20;;;18.20;73.00;;;;;;10364699;28;20030;-54
2021/10/23 17:54:38;;;;;;;9.13;3.97;;;18.10;73.10;;;;;;10370646;28;20030;-54
2021/10/23 17:59:39;;;;;;;8.77;3.45;;;18.10;73.50;;;;;;10378696;28;20018;-55
2021/10/23 18:04:39;;;;;;;10.73;3.90;;;18.30;73.00;;;;;;10377400;28;20504;-55
2021/10/23 18:09:40;;;;;;;7.15;4.22;;;18.30;72.90;;;;;;10352115;28;20147;-55
2021/10/23 18:14:42;;;;;;;7.43;3.95;;;18.30;72.90;;;;;;10377893;28;20121;-54
2021/10/23 18:19:42;;;;;;;7.70;3.65;;;18.30;72.90;;;;;;10356644;28;20035;-55
2021/10/23 18:24:44;;;;;;;6.82;3.70;;;18.40;72.40;;;;;;10357699;28;20117;-55
2021/10/23 18:29:48;;;;;;;9.00;4.13;;;18.50;72.30;;;;;;10351429;28;20056;-54
2021/10/23 18:34:50;;;;;;;6.55;4.38;;;18.40;72.50;;;;;;10376970;28;20022;-55
2021/10/23 18:39:51;;;;;;;5.40;3.42;;;18.40;72.80;;;;;;10371782;28;20101;-55
2021/10/23 18:44:52;;;;;;;6.32;3.50;;;18.30;73.00;;;;;;10337844;28;20497;-55
2021/10/23 18:49:53;;;;;;;7.95;3.95;;;18.30;73.30;;;;;;10349614;28;20057;-54
2021/10/23 18:54:54;;;;;;;12.73;4.28;;;18.30;73.40;;;;;;10337885;28;20050;-55
2021/10/23 19:00:00;;;;;;;5.72;3.15;;;18.30;73.60;;;;;;10356209;28;20036;-55
2021/10/23 19:05:01;;;;;;;6.72;3.50;;;18.20;73.30;;;;;;10375993;28;20033;-55
2021/10/23 19:10:04;;;;;;;11.00;3.92;;;18.30;73.00;;;;;;10371245;28;20530;-55
2021/10/23 19:15:07;;;;;;;6.13;3.30;;;18.30;72.50;;;;;;10372433;28;20544;-54
2021/10/23 19:20:10;;;;;;;7.28;3.97;;;18.30;72.50;;;;;;10362068;28;20570;-55
2021/10/23 19:25:14;;;;;;;5.53;3.28;;;18.20;72.60;;;;;;10362924;28;20356;-56
2021/10/23 19:30:17;;;;;;;3.92;2.67;;;18.10;72.70;;;;;;10338182;28;20038;-54
2021/10/23 19:35:19;;;;;;;6.00;3.10;;;18.00;72.80;;;;;;10333030;28;20034;-55
2021/10/23 19:40:20;;;;;;;5.07;3.17;;;17.90;72.90;;;;;;10357619;28;20049;-54
2021/10/23 19:45:20;;;;;;;4.57;3.20;;;17.90;73.00;;;;;;10372141;28;20034;-55
2021/10/23 19:50:21;;;;;;;5.80;3.40;;;17.90;73.10;;;;;;10345575;28;20072;-55
2021/10/23 19:55:22;;;;;;;5.35;2.90;;;17.90;73.10;;;;;;10331762;28;20139;-55
2021/10/23 20:00:23;;;;;;;8.05;3.60;;;17.80;73.10;;;;;;10347916;28;20026;-54
2021/10/23 20:05:23;;;;;;;8.98;4.20;;;17.80;73.00;;;;;;10374291;28;20022;-54
2021/10/23 20:10:24;;;;;;;7.25;3.55;;;17.70;73.10;;;;;;10373373;28;20143;-55
2021/10/23 20:15:25;;;;;;;8.10;3.40;;;17.70;73.00;;;;;;10373682;28;20037;-55
2021/10/23 20:20:25;;;;;;;6.63;3.67;;;17.60;73.00;;;;;;10343459;28;20026;-56
2021/10/23 20:25:26;;;;;;;6.25;3.53;;;17.60;73.00;;;;;;10353784;28;20511;-55
2021/10/23 20:30:27;;;;;;;6.72;3.95;;;17.60;72.90;;;;;;10371640;28;20088;-55
2021/10/23 20:35:28;;;;;;;5.15;4.05;;;17.50;72.90;;;;;;10371226;28;20036;-53
2021/10/23 20:40:31;;;;;;;5.28;3.67;;;17.50;72.70;;;;;;10372254;28;20045;-55
2021/10/23 20:45:32;;;;;;;5.72;3.80;;;17.50;72.70;;;;;;10372826;28;20061;-54
2021/10/23 20:50:32;;;;;;;5.43;3.80;;;17.40;72.70;;;;;;10370520;28;20144;-55
2021/10/23 20:55:33;;;;;;;9.07;4.40;;;17.40;72.60;;;;;;10331992;28;20121;-54
2021/10/23 21:00:34;;;;;;;4.28;3.25;;;17.40;72.90;;;;;;10370833;28;20034;-55
2021/10/23 21:05:35;;;;;;;5.72;3.38;;;17.40;72.70;;;;;;10372215;28;20494;-54
2021/10/23 21:10:37;;;;;;;4.85;3.42;;;17.40;72.60;;;;;;10372391;28;20030;-54
2021/10/23 21:15:37;;;;;;;5.40;3.75;;;17.40;72.60;;;;;;10380968;28;20054;-55
2021/10/23 21:20:38;;;;;;;4.80;3.45;;;17.40;72.60;;;;;;10346295;28;20386;-55
2021/10/23 21:25:41;;;;;;;5.95;3.30;;;17.40;72.40;;;;;;10355118;28;20106;-56
2021/10/23 21:30:42;;;;;;;5.00;3.58;;;17.60;72.10;;;;;;10379519;28;20049;-55
2021/10/23 21:35:43;;;;;;;4.75;3.28;;;17.70;71.80;;;;;;10342213;28;20034;-55
2021/10/23 21:40:43;;;;;;;4.28;3.35;;;17.70;71.90;;;;;;10340560;28;20188;-55
2021/10/23 21:45:47;;;;;;;5.65;3.60;;;17.60;71.60;;;;;;10338520;28;20475;-53
2021/10/23 21:50:48;;;;;;;4.00;3.47;;;17.70;71.60;;;;;;10373629;28;20042;-56
2021/10/23 21:55:48;;;;;;;4.65;3.22;;;17.70;71.30;;;;;;10338626;28;20041;-55
2021/10/23 22:01:07;;;;;;;5.05;3.20;;;17.80;71.00;;;;;;10378845;28;20504;-55
2021/10/23 22:06:10;;;;;;;4.82;3.42;;;17.80;71.10;;;;;;10378522;28;20036;-55
2021/10/23 22:11:13;;;;;;;5.50;3.63;;;17.70;71.20;;;;;;10377534;28;20168;-54
2021/10/23 22:16:14;;;;;;;4.65;2.78;;;17.70;71.20;;;;;;10356873;28;20429;-53
2021/10/23 22:21:14;;;;;;;3.90;2.85;;;17.60;71.40;;;;;;10339232;28;20038;-55
2021/10/23 22:26:16;;;;;;;4.18;3.08;;;17.50;71.40;;;;;;10358944;28;20486;-54
2021/10/23 22:31:17;;;;;;;4.25;3.00;;;17.50;71.50;;;;;;10378281;28;20474;-54
2021/10/23 22:36:18;;;;;;;4.13;3.05;;;17.50;71.60;;;;;;10362606;28;20070;-56
2021/10/23 22:41:19;;;;;;;5.18;3.35;;;17.60;71.40;;;;;;10346590;28;20065;-54
2021/10/23 22:46:19;;;;;;;3.67;2.92;;;17.60;71.10;;;;;;10347174;28;20590;-55
2021/10/23 22:51:20;;;;;;;5.75;3.15;;;17.70;71.00;;;;;;10377001;28;20445;-54
2021/10/23 22:56:21;;;;;;;3.97;2.67;;;17.70;70.90;;;;;;10376394;28;20042;-56
2021/10/23 23:01:21;;;;;;;3.60;2.90;;;17.70;70.50;;;;;;10351259;28;20105;-55
2021/10/23 23:06:22;;;;;;;4.43;2.58;;;17.70;70.50;;;;;;10341503;28;20113;-55
2021/10/23 23:11:23;;;;;;;3.85;2.55;;;17.80;70.50;;;;;;10375947;28;20530;-56
2021/10/23 23:16:24;;;;;;;5.05;2.83;;;17.70;70.40;;;;;;10337223;28;20109;-56
2021/10/23 23:21:24;;;;;;;3.50;2.67;;;17.70;70.50;;;;;;10335069;28;20121;-53
2021/10/23 23:26:25;;;;;;;4.90;2.45;;;17.60;70.70;;;;;;10355057;28;20108;-54
2021/10/23 23:31:26;;;;;;;3.88;2.78;;;17.60;70.70;;;;;;10375334;28;20553;-54
2021/10/23 23:36:27;;;;;;;3.70;2.80;;;17.70;70.60;;;;;;10374694;28;20109;-55
2021/10/23 23:41:28;;;;;;;8.20;3.05;;;17.70;70.50;;;;;;10374779;28;20472;-56
2021/10/23 23:46:28;;;;;;;5.75;2.75;;;17.70;70.40;;;;;;10374506;28;20038;-55
2021/10/23 23:51:29;;;;;;;5.60;2.92;;;17.70;70.10;;;;;;10340428;28;20498;-55
2021/10/23 23:56:30;;;;;;;3.47;2.65;;;17.70;70.10;;;;;;10337915;28;20030;-53
